createdAt,value
2022-08-26T00:02:33.302Z,98997.94
2022-08-26T00:07:36.304Z,98993.78
2022-08-26T00:12:41.208Z,98988.09
2022-08-26T00:17:46.225Z,98989.38
2022-08-26T00:22:51.101Z,98972.19
2022-08-26T00:27:54.293Z,98969.56
2022-08-26T00:33:00.470Z,98975.25
2022-08-26T00:38:05.115Z,98966.84
2022-08-26T00:43:09.357Z,98968.72
2022-08-26T00:48:17.153Z,98964.53
2022-08-26T00:53:26.034Z,98962.16
2022-08-26T00:58:35.115Z,98964.84
2022-08-26T01:03:40.260Z,98961.00
2022-08-26T01:08:43.284Z,98955.06
2022-08-26T01:13:47.496Z,98962.53
2022-08-26T01:18:53.825Z,98957.78
2022-08-26T01:24:00.604Z,98963.19
2022-08-26T01:29:06.984Z,98955.50
2022-08-26T01:34:17.270Z,98956.84
2022-08-26T01:39:21.992Z,98952.31
2022-08-26T01:44:28.872Z,98953.75
2022-08-26T01:49:33.084Z,98958.19
2022-08-26T01:54:39.475Z,98955.13
2022-08-26T01:59:43.353Z,98948.50
2022-08-26T02:04:51.100Z,98953.38
2022-08-26T02:09:56.883Z,98955.78
2022-08-26T02:15:05.767Z,98960.97
2022-08-26T02:20:13.173Z,98954.78
2022-08-26T02:25:25.065Z,98952.66
2022-08-26T02:30:29.889Z,98949.75
2022-08-26T02:35:34.636Z,98955.19
2022-08-26T02:40:41.090Z,98949.59
2022-08-26T02:45:45.904Z,98950.34
2022-08-26T02:50:49.727Z,98957.81
2022-08-26T02:55:54.159Z,98952.53
2022-08-26T03:00:57.437Z,98947.28
2022-08-26T03:06:01.225Z,98943.03
2022-08-26T03:11:06.031Z,98937.31
2022-08-26T03:16:09.537Z,98943.59
2022-08-26T03:21:17.525Z,98941.56
2022-08-26T03:26:23.027Z,98934.72
2022-08-26T03:31:26.080Z,98937.31
2022-08-26T03:36:29.072Z,98935.16
2022-08-26T03:41:35.553Z,98934.63
2022-08-26T03:46:39.619Z,98930.41
2022-08-26T03:51:43.047Z,98929.38
2022-08-26T03:56:49.144Z,98927.75
2022-08-26T04:01:52.265Z,98917.63
2022-08-26T04:06:59.336Z,98917.09
2022-08-26T04:12:04.382Z,98921.94
2022-08-26T04:17:07.817Z,98924.06
2022-08-26T04:22:10.938Z,98917.44
2022-08-26T04:27:15.323Z,98923.56
2022-08-26T04:32:19.811Z,98925.41
2022-08-26T04:37:22.813Z,98928.25
2022-08-26T04:42:27.207Z,98922.94
2022-08-26T04:47:32.476Z,98926.19
2022-08-26T04:52:36.591Z,98921.94
2022-08-26T04:57:41.245Z,98915.75
2022-08-26T05:02:44.364Z,98916.28
2022-08-26T05:07:47.358Z,98929.38
2022-08-26T05:12:54.247Z,98926.94
2022-08-26T05:17:59.093Z,98930.75
2022-08-26T05:23:04.487Z,98931.41
2022-08-26T05:28:09.369Z,98933.78
2022-08-26T05:33:13.252Z,98930.44
2022-08-26T05:38:22.082Z,98933.44
2022-08-26T05:43:26.413Z,98925.41
2022-08-26T05:48:29.528Z,98924.31
2022-08-26T05:53:33.255Z,98927.28
2022-08-26T05:58:39.704Z,98929.19
2022-08-26T06:03:51.756Z,98922.31
2022-08-26T06:08:55.187Z,98922.72
2022-08-26T06:14:03.736Z,98930.63
2022-08-26T06:19:10.554Z,98933.66
2022-08-26T06:24:33.132Z,98938.78
2022-08-26T06:29:38.229Z,98936.00
2022-08-26T06:34:41.228Z,98934.91
2022-08-26T06:39:44.645Z,98931.56
2022-08-26T06:44:48.990Z,98928.84
2022-08-26T06:49:52.135Z,98921.63
2022-08-26T06:54:55.136Z,98927.19
2022-08-26T06:59:59.585Z,98920.56
2022-08-26T07:05:02.650Z,98917.72
2022-08-26T07:10:06.246Z,98927.72
2022-08-26T07:15:12.069Z,98928.59
2022-08-26T07:20:15.348Z,98931.44
2022-08-26T07:25:19.256Z,98925.97
2022-08-26T07:30:25.635Z,98926.88
2022-08-26T07:35:28.688Z,98922.25
2022-08-26T07:40:34.018Z,98921.66
2022-08-26T07:45:38.420Z,98928.59
2022-08-26T07:50:50.227Z,98914.97
2022-08-26T07:55:53.886Z,98917.38
2022-08-26T08:00:58.441Z,98906.44
2022-08-26T08:06:01.976Z,98903.44
2022-08-26T08:11:05.127Z,98894.53
2022-08-26T08:16:12.694Z,98895.72
2022-08-26T08:21:22.182Z,98893.91
2022-08-26T08:26:27.900Z,98886.84
2022-08-26T08:36:59.521Z,98887.97
2022-08-26T08:42:33.348Z,98880.09
2022-08-26T08:47:43.002Z,98874.78
2022-08-26T08:52:53.087Z,98872.00
2022-08-26T08:58:03.771Z,98867.22
2022-08-26T09:03:16.182Z,98872.69
2022-08-26T09:08:24.330Z,98866.38
2022-08-26T09:13:29.164Z,98848.72
2022-08-26T09:18:50.241Z,98865.84
2022-08-26T09:23:56.632Z,98869.50
2022-08-26T09:29:01.867Z,98857.53
2022-08-26T09:34:17.841Z,98849.53
2022-08-26T09:39:34.685Z,98867.59
2022-08-26T09:44:55.841Z,98860.66
2022-08-26T09:50:09.586Z,98867.13
2022-08-26T09:55:21.662Z,98850.22
2022-08-26T10:00:29.070Z,98844.38
2022-08-26T10:05:40.065Z,98847.38
2022-08-26T10:10:45.360Z,98839.22
2022-08-26T10:15:57.809Z,98818.16
2022-08-26T10:21:09.869Z,98822.13
2022-08-26T10:26:17.490Z,98809.69
2022-08-26T10:31:28.370Z,98800.03
2022-08-26T10:37:13.712Z,98787.84
2022-08-26T10:42:25.240Z,98780.16
2022-08-26T10:47:38.390Z,98763.63
2022-08-26T10:52:57.070Z,98751.84
2022-08-26T10:58:09.157Z,98761.63
2022-08-26T11:03:35.108Z,98755.09
2022-08-26T11:08:47.668Z,98763.13
2022-08-26T11:14:04.425Z,98765.09
2022-08-26T11:19:09.278Z,98765.38
2022-08-26T11:24:45.158Z,98758.47
2022-08-26T11:30:01.209Z,98755.56
2022-08-26T11:35:07.477Z,98756.47
2022-08-26T11:40:14.783Z,98732.88
2022-08-26T11:45:24.217Z,98714.16
2022-08-26T11:50:29.719Z,98703.31
2022-08-26T11:55:37.223Z,98688.44
2022-08-26T12:00:52.326Z,98679.91
2022-08-26T12:05:56.449Z,98674.50
2022-08-26T12:11:07.039Z,98662.81
2022-08-26T12:16:10.559Z,98681.78
2022-08-26T12:21:16.164Z,98676.94
2022-08-26T12:26:28.166Z,98675.22
2022-08-26T12:31:33.453Z,98675.88
2022-08-26T12:36:40.243Z,98671.34
2022-08-26T12:41:54.152Z,98663.72
2022-08-26T12:47:03.561Z,98664.63
2022-08-26T12:52:08.713Z,98664.84
2022-08-26T12:57:14.163Z,98672.31
2022-08-26T13:02:37.942Z,98666.00
2022-08-26T13:07:41.051Z,98649.09
2022-08-26T13:12:45.453Z,98660.00
2022-08-26T13:17:48.460Z,98638.78
2022-08-26T13:22:58.894Z,98632.06
2022-08-26T13:28:04.013Z,98638.16
2022-08-26T13:33:08.262Z,98649.13
2022-08-26T13:38:20.561Z,98650.75
2022-08-26T13:43:37.926Z,98662.63
2022-08-26T13:48:41.143Z,98672.06
2022-08-26T13:53:47.953Z,98673.44
2022-08-26T13:58:52.342Z,98668.84
2022-08-26T14:03:55.441Z,98654.72
2022-08-26T14:08:58.695Z,98646.44
2022-08-26T14:14:03.092Z,98638.69
2022-08-26T14:19:07.764Z,98641.06
2022-08-26T14:24:10.869Z,98629.38
2022-08-26T14:29:16.769Z,98632.72
2022-08-26T14:34:20.162Z,98619.16
2022-08-26T14:39:23.198Z,98603.81
2022-08-26T14:44:32.168Z,98605.00
2022-08-26T14:49:35.232Z,98603.44
2022-08-26T14:54:38.539Z,98591.25
2022-08-26T14:59:49.883Z,98590.03
2022-08-26T15:04:53.361Z,98590.66
2022-08-26T15:09:56.454Z,98582.41
2022-08-26T15:15:00.863Z,98585.50
2022-08-26T15:20:05.031Z,98597.06
2022-08-26T15:25:09.711Z,98604.56
2022-08-26T15:30:16.271Z,98601.69
2022-08-26T15:35:19.802Z,98609.84
2022-08-26T15:40:23.884Z,98606.56
2022-08-26T15:45:28.453Z,98604.00
2022-08-26T15:50:32.281Z,98591.75
2022-08-26T15:55:35.380Z,98612.81
2022-08-26T16:00:40.431Z,98624.50
2022-08-26T16:05:44.574Z,98625.50
2022-08-26T16:10:50.640Z,98635.13
2022-08-26T16:15:55.377Z,98641.56
2022-08-26T16:21:13.274Z,98650.41
2022-08-26T16:26:20.765Z,98643.88
2022-08-26T16:31:25.535Z,98655.31
2022-08-26T16:36:28.637Z,98652.75
2022-08-26T16:41:32.587Z,98638.25
2022-08-26T16:46:39.728Z,98612.69
2022-08-26T16:51:43.245Z,98615.53
2022-08-26T16:56:46.435Z,98622.19
2022-08-26T17:01:51.234Z,98622.44
2022-08-26T17:06:54.366Z,98619.38
2022-08-26T17:11:57.556Z,98622.25
2022-08-26T17:17:02.072Z,98632.50
2022-08-26T17:22:06.072Z,98619.03
2022-08-26T17:27:09.223Z,98612.84
2022-08-26T17:32:13.603Z,98602.34
2022-08-26T17:37:16.919Z,98596.63
2022-08-26T17:42:20.090Z,98584.69
2022-08-26T17:47:24.792Z,98595.66
2022-08-26T17:52:27.961Z,98580.09
2022-08-26T17:57:31.443Z,98591.91
2022-08-26T18:02:45.017Z,98594.13
2022-08-26T18:07:48.582Z,98603.09
2022-08-26T18:12:51.596Z,98615.88
2022-08-26T18:17:56.040Z,98611.31
2022-08-26T18:22:59.170Z,98617.78
2022-08-26T18:28:02.181Z,98613.31
2022-08-26T18:33:06.666Z,98606.03
2022-08-26T18:38:11.545Z,98634.56
2022-08-26T18:43:14.772Z,98661.34
2022-08-26T18:48:19.227Z,98652.84
2022-08-26T18:53:22.294Z,98663.09
2022-08-26T18:58:25.480Z,98668.59
2022-08-26T19:03:29.941Z,98669.97
2022-08-26T19:08:32.935Z,98669.53
2022-08-26T19:13:37.501Z,98655.31
2022-08-26T19:18:41.894Z,98648.22
2022-08-26T19:23:44.866Z,98660.16
2022-08-26T19:28:49.757Z,98658.03
2022-08-26T19:33:54.281Z,98662.56
2022-08-26T19:38:57.356Z,98648.84
2022-08-26T19:44:01.734Z,98653.28
2022-08-26T19:49:08.934Z,98669.53
2022-08-26T19:54:11.936Z,98660.91
2022-08-26T19:59:15.209Z,98657.13
2022-08-26T20:04:19.588Z,98637.25
2022-08-26T20:09:22.702Z,98633.03
2022-08-26T20:14:26.096Z,98628.47
2022-08-26T20:19:48.136Z,98623.56
2022-08-26T20:24:51.765Z,98636.72
2022-08-26T20:29:55.605Z,98643.22
2022-08-26T20:35:01.611Z,98643.66
2022-08-26T20:40:06.644Z,98655.81
2022-08-26T20:45:10.779Z,98650.69
2022-08-26T20:50:15.342Z,98648.53
2022-08-26T20:55:18.652Z,98647.75
2022-08-26T21:00:26.463Z,98650.00
2022-08-26T21:05:31.539Z,98652.66
2022-08-26T21:10:34.611Z,98643.03
2022-08-26T21:15:39.558Z,98642.94
2022-08-26T21:20:43.969Z,98653.91
2022-08-26T21:25:47.667Z,98660.03
2022-08-26T21:30:50.700Z,98673.19
2022-08-26T21:35:55.562Z,98666.28
2022-08-26T21:41:00.219Z,98657.69
2022-08-26T21:46:11.398Z,98647.06
2022-08-26T21:51:17.468Z,98643.06
2022-08-26T21:56:21.940Z,98633.91
2022-08-26T22:01:28.254Z,98625.06
2022-08-26T22:06:34.680Z,98611.19
2022-08-26T22:11:38.277Z,98619.22
2022-08-26T22:16:41.393Z,98611.94
2022-08-26T22:21:56.030Z,98620.72
2022-08-26T22:26:59.110Z,98617.94
2022-08-26T22:32:02.384Z,98628.22
2022-08-26T22:37:06.918Z,98618.09
2022-08-26T22:42:09.930Z,98617.75
2022-08-26T22:47:13.019Z,98622.38
2022-08-26T22:52:17.650Z,98623.28
2022-08-26T22:57:21.570Z,98635.41
2022-08-26T23:02:24.667Z,98646.28
2022-08-26T23:07:29.106Z,98638.84
2022-08-26T23:12:32.642Z,98642.63
2022-08-26T23:17:35.788Z,98640.94
2022-08-26T23:22:40.817Z,98646.00
2022-08-26T23:27:44.591Z,98644.41
2022-08-26T23:32:47.827Z,98654.22
2022-08-26T23:37:53.617Z,98652.94
2022-08-26T23:42:58.355Z,98676.09
2022-08-26T23:48:01.755Z,98677.13
2022-08-26T23:53:09.076Z,98680.19
2022-08-26T23:58:12.176Z,98675.72
